map of OUL home
OUL - Airport
Location
City:  Oulu, Pohjois-Pohjanmaa (Norra Österbotten, Northern Ostrobothnia), Finland
ICAO:EFOU
IATA:OUL

Details
Type:Airport (Aerodrome, Airfield)
Latitude:64°55'45"N (64.929167)
Longitude:25°21'20"E (25.355556)
Elevation:47 ft (14 m)
Variation:10.86°E (WMM2015 magnetic declination)
0.18° annual change
Runways:1
Longest:8205 × 197 ft (2501 × 60 m), paved

Time
Time Zone:UTC+2 (DST+3)
Local Time:

Weather
METAR:EFOU 181920Z AUTO 26004KT 0700 0500 R12/1000D -SN FZFG VV001 M18/M20 Q0998
TAF:EFOU 181737Z 1818/1918 VRB02KT 9999 FEW001
TEMPO 1818/1906 2000 BR BKN001 PROB30 1818/1906 0500 FZFG
TEMPO 1906/1918 1200 BR BKN001

Related Locations
Nearby:
Farthest:NZTB: 11272 mi / 18141 km
Terra Nova Bay [Mario Zucchelli Station], AQ

Find:

   beyond  
but within

Other Information
Maps:
NOTAMs:
Links:
Sources:

  
  • flag of Finland
  

Sectional Chart

Flight Planning
at skyvector.com

Satellite Image

Google Maps Satellite view

 

Copyright © 2004-2019 Karl L. Swartz. All rights reserved.
The Great Circle Mapper name and logo are trademarks of the Great Circle Mapper.
All other trademarks mentioned herein belong to their respective owners.
Please see credits for attibutions and further copyright information.

  Follow gcmap on Facebook Follow gcmap on Twitter Follow gcmap on Google+ GCmap on LinkedIn

hCard Microformat

Geo Microformat